Time;durP1;ratioP1;P1;durP2;ratioP2;P2;SDS_P1;SDS_P2;PMS_P1;PMS_P2;Temp;Humidity;BMP_temperature;BMP_pressure;BME280_temperature;BME280_humidity;BME280_pressure;Samples;Min_cycle;Max_cycle;Signal;HPM_P1;HPM_P2
2023/02/16 00:00:04;;;;;;;69.77;22.20;;;;;;;;;;5055000;28;20032;-82
2023/02/16 00:02:30;;;;;;;72.13;22.00;;;;;;;;;;5055404;28;20028;-81
2023/02/16 00:04:56;;;;;;;66.17;23.40;;;;;;;;;;5054344;28;20111;-83
2023/02/16 00:07:23;;;;;;;63.17;23.67;;;;;;;;;;5056020;28;20410;-81
2023/02/16 00:09:48;;;;;;;64.07;24.17;;;;;;;;;;5054195;28;20044;-82
2023/02/16 00:15:17;;;;;;;50.53;18.73;;;;;;;;;;5055152;28;20032;-82
2023/02/16 00:17:42;;;;;;;48.93;17.47;;;;;;;;;;5054891;28;20021;-81
2023/02/16 00:20:15;;;;;;;50.20;18.53;;;;;;;;;;5055243;28;20029;-81
2023/02/16 00:22:40;;;;;;;40.67;14.90;;;;;;;;;;5053347;28;20117;-80
2023/02/16 00:25:07;;;;;;;45.10;17.00;;;;;;;;;;5053326;28;20033;-81
2023/02/16 00:27:33;;;;;;;40.90;16.17;;;;;;;;;;5054206;28;20080;-81
2023/02/16 00:29:59;;;;;;;47.00;16.63;;;;;;;;;;5054158;28;20029;-81
2023/02/16 00:32:25;;;;;;;43.13;16.57;;;;;;;;;;5054792;28;20448;-81
2023/02/16 00:34:50;;;;;;;38.90;15.40;;;;;;;;;;5053596;28;20052;-81
2023/02/16 00:37:16;;;;;;;42.57;16.87;;;;;;;;;;5054530;28;20056;-81
2023/02/16 00:39:43;;;;;;;44.57;18.13;;;;;;;;;;5055084;28;20401;-81
2023/02/16 00:42:18;;;;;;;51.13;17.57;;;;;;;;;;5054009;28;20469;-82
2023/02/16 00:44:50;;;;;;;43.90;16.20;;;;;;;;;;5054668;28;20422;-82
2023/02/16 00:47:15;;;;;;;50.05;17.58;;;;;;;;;;5053404;28;20025;-82
2023/02/16 00:49:41;;;;;;;42.60;15.93;;;;;;;;;;5052168;28;20039;-83
2023/02/16 00:52:33;;;;;;;47.90;17.30;;;;;;;;;;5052484;28;20029;-82
2023/02/16 00:55:00;;;;;;;42.78;15.70;;;;;;;;;;5044389;28;20059;-82
2023/02/16 00:57:31;;;;;;;52.23;16.77;;;;;;;;;;5052621;28;20087;-82
2023/02/16 01:00:25;;;;;;;51.00;18.30;;;;;;;;;;5052197;28;20112;-82
2023/02/16 01:02:54;;;;;;;51.20;17.73;;;;;;;;;;5045327;28;20484;-82
2023/02/16 01:05:20;;;;;;;46.33;16.37;;;;;;;;;;5052768;28;20024;-82
2023/02/16 01:13:17;;;;;;;52.90;17.00;;;;;;;;;;5054895;28;20075;-82
2023/02/16 01:15:43;;;;;;;52.70;18.40;;;;;;;;;;5053938;28;20025;-81
2023/02/16 01:18:15;;;;;;;50.50;18.83;;;;;;;;;;5052217;28;20051;-82
2023/02/16 01:20:40;;;;;;;53.30;17.60;;;;;;;;;;5068311;28;20090;-82
2023/02/16 01:23:06;;;;;;;56.37;19.10;;;;;;;;;;5051857;28;20036;-83
2023/02/16 01:25:31;;;;;;;55.80;19.60;;;;;;;;;;5053015;28;20068;-81
2023/02/16 01:27:57;;;;;;;53.03;19.63;;;;;;;;;;5051724;28;20029;-82
2023/02/16 01:30:24;;;;;;;54.27;17.07;;;;;;;;;;5051944;28;20025;-82
2023/02/16 01:32:50;;;;;;;47.43;17.93;;;;;;;;;;5068353;28;20029;-82
2023/02/16 01:35:27;;;;;;;58.23;19.60;;;;;;;;;;5053373;28;20583;-82
2023/02/16 01:37:53;;;;;;;59.80;18.33;;;;;;;;;;5052361;28;20029;-82
2023/02/16 01:40:28;;;;;;;52.97;17.80;;;;;;;;;;5052395;28;20032;-82
2023/02/16 01:43:00;;;;;;;51.77;16.30;;;;;;;;;;5052318;28;20098;-82
2023/02/16 01:45:33;;;;;;;51.92;17.50;;;;;;;;;;5053918;28;20120;-81
2023/02/16 01:48:05;;;;;;;49.03;18.13;;;;;;;;;;5052391;28;20480;-83
2023/02/16 01:50:48;;;;;;;58.03;19.60;;;;;;;;;;5054300;28;20029;-82
2023/02/16 01:53:28;;;;;;;52.13;18.97;;;;;;;;;;5052147;28;20119;-82
2023/02/16 01:56:02;;;;;;;55.17;18.97;;;;;;;;;;5068571;28;20687;-82
2023/02/16 01:58:27;;;;;;;49.90;17.20;;;;;;;;;;5053691;28;20025;-82
2023/02/16 02:00:55;;;;;;;59.17;19.50;;;;;;;;;;5052418;28;20029;-83
2023/02/16 02:06:27;;;;;;;60.13;17.83;;;;;;;;;;5054710;28;20028;-82
2023/02/16 02:09:07;;;;;;;59.93;20.30;;;;;;;;;;5052533;28;20060;-82
2023/02/16 02:11:40;;;;;;;55.67;19.27;;;;;;;;;;5054232;28;20499;-82
2023/02/16 02:14:31;;;;;;;59.03;19.97;;;;;;;;;;5052960;28;20033;-83
2023/02/16 02:17:03;;;;;;;58.53;19.20;;;;;;;;;;5046268;28;20488;-82
2023/02/16 02:19:36;;;;;;;72.70;20.43;;;;;;;;;;5053371;28;20025;-82
2023/02/16 02:25:20;;;;;;;56.20;20.23;;;;;;;;;;5053730;28;20146;-82
2023/02/16 02:27:56;;;;;;;63.27;21.03;;;;;;;;;;5051938;28;20056;-80
2023/02/16 02:30:37;;;;;;;57.70;20.60;;;;;;;;;;5052198;28;20017;-80
2023/02/16 02:33:09;;;;;;;63.47;19.73;;;;;;;;;;5052401;28;20033;-82
2023/02/16 02:35:46;;;;;;;76.55;22.13;;;;;;;;;;5052125;28;20025;-82
2023/02/16 02:38:23;;;;;;;58.70;18.77;;;;;;;;;;5052533;28;20078;-81
2023/02/16 02:41:07;;;;;;;57.00;18.03;;;;;;;;;;5056845;28;20074;-82
2023/02/16 02:43:44;;;;;;;52.70;19.03;;;;;;;;;;5056725;28;20017;-81
2023/02/16 02:46:23;;;;;;;53.57;19.77;;;;;;;;;;5053746;28;20028;-82
2023/02/16 02:48:49;;;;;;;58.17;19.30;;;;;;;;;;5051735;28;20025;-81
2023/02/16 02:51:27;;;;;;;63.47;19.03;;;;;;;;;;5051606;28;20036;-82
2023/02/16 03:02:40;;;;;;;51.87;19.40;;;;;;;;;;5056749;28;20174;-81
2023/02/16 03:05:08;;;;;;;51.77;18.63;;;;;;;;;;5041194;28;20021;-82
2023/02/16 03:07:48;;;;;;;54.30;18.77;;;;;;;;;;5069282;28;20025;-82
2023/02/16 03:13:35;;;;;;;57.03;18.30;;;;;;;;;;5056307;28;20061;-82
2023/02/16 03:16:11;;;;;;;68.03;22.23;;;;;;;;;;5034419;28;20037;-82
2023/02/16 03:29:46;;;;;;;63.93;19.23;;;;;;;;;;5033745;28;20033;-82
2023/02/16 03:32:12;;;;;;;57.27;18.80;;;;;;;;;;5032609;28;20037;-82
2023/02/16 03:34:37;;;;;;;48.80;17.70;;;;;;;;;;5031515;28;20026;-81
2023/02/16 03:37:04;;;;;;;57.67;19.87;;;;;;;;;;5031618;28;20040;-82
2023/02/16 03:39:30;;;;;;;45.33;16.27;;;;;;;;;;5016202;28;20029;-82
2023/02/16 03:41:56;;;;;;;51.30;19.47;;;;;;;;;;5033440;28;20103;-82
2023/02/16 03:44:23;;;;;;;49.37;17.57;;;;;;;;;;5032979;28;20113;-80
2023/02/16 03:46:49;;;;;;;53.27;17.93;;;;;;;;;;5031553;28;20449;-82
2023/02/16 03:49:20;;;;;;;45.70;15.73;;;;;;;;;;5032101;28;20033;-77
2023/02/16 03:51:45;;;;;;;46.23;16.90;;;;;;;;;;5030904;28;20574;-81
2023/02/16 03:54:11;;;;;;;46.20;16.37;;;;;;;;;;5031439;28;20317;-80
2023/02/16 03:56:37;;;;;;;55.70;17.30;;;;;;;;;;5031056;28;20036;-81
2023/02/16 03:59:02;;;;;;;46.27;18.57;;;;;;;;;;5030673;28;20425;-81
2023/02/16 04:01:28;;;;;;;53.37;18.73;;;;;;;;;;5032622;28;20025;-81
2023/02/16 04:03:53;;;;;;;54.40;18.80;;;;;;;;;;5030883;28;20112;-82
2023/02/16 04:06:19;;;;;;;53.23;19.83;;;;;;;;;;5029913;28;20084;-82
2023/02/16 04:08:45;;;;;;;50.73;17.30;;;;;;;;;;5029799;28;20037;-80
2023/02/16 04:13:54;;;;;;;60.57;19.47;;;;;;;;;;5030956;28;20448;-82
2023/02/16 04:16:20;;;;;;;56.77;17.83;;;;;;;;;;5032225;28;20048;-81
2023/02/16 04:18:45;;;;;;;53.63;17.63;;;;;;;;;;5029538;28;20035;-81
2023/02/16 04:21:11;;;;;;;43.77;15.17;;;;;;;;;;5031664;28;20037;-81
2023/02/16 04:23:36;;;;;;;56.90;19.00;;;;;;;;;;5031136;28;20022;-82
2023/02/16 04:26:02;;;;;;;51.17;16.97;;;;;;;;;;5030452;28;20045;-82
2023/02/16 04:28:28;;;;;;;55.03;17.63;;;;;;;;;;5029943;28;20030;-82
2023/02/16 04:30:53;;;;;;;50.97;18.73;;;;;;;;;;5031590;28;20037;-82
2023/02/16 04:33:19;;;;;;;54.10;18.67;;;;;;;;;;5030036;28;20040;-79
2023/02/16 04:35:44;;;;;;;49.77;17.93;;;;;;;;;;5031586;28;20025;-82
2023/02/16 04:38:10;;;;;;;51.07;16.43;;;;;;;;;;5029685;28;20445;-81
2023/02/16 04:40:35;;;;;;;47.47;17.80;;;;;;;;;;5031013;28;20030;-82
2023/02/16 04:43:01;;;;;;;52.83;18.43;;;;;;;;;;5029101;28;20032;-82
2023/02/16 04:45:26;;;;;;;53.13;18.53;;;;;;;;;;5035863;28;20025;-81
2023/02/16 04:47:52;;;;;;;58.00;17.93;;;;;;;;;;5035180;28;20135;-81
2023/02/16 04:50:17;;;;;;;55.80;19.33;;;;;;;;;;5034577;28;20175;-82
2023/02/16 04:52:43;;;;;;;57.83;17.60;;;;;;;;;;5034067;28;20151;-81
2023/02/16 04:55:09;;;;;;;48.10;17.50;;;;;;;;;;5033241;28;20048;-82
2023/02/16 04:57:37;;;;;;;51.87;17.63;;;;;;;;;;5033414;28;20508;-80
2023/02/16 05:00:04;;;;;;;46.27;17.27;;;;;;;;;;5033751;28;20100;-82
2023/02/16 05:02:31;;;;;;;54.43;18.17;;;;;;;;;;5032303;28;20040;-82
2023/02/16 05:04:57;;;;;;;55.33;19.57;;;;;;;;;;5032105;28;20030;-82
2023/02/16 05:07:22;;;;;;;48.53;17.93;;;;;;;;;;5033096;28;20041;-81
2023/02/16 05:09:48;;;;;;;56.93;19.07;;;;;;;;;;5032355;28;20033;-81
2023/02/16 05:14:58;;;;;;;61.17;19.43;;;;;;;;;;5033573;28;20040;-81
2023/02/16 05:17:25;;;;;;;47.27;16.83;;;;;;;;;;5033556;28;20033;-81
2023/02/16 05:19:56;;;;;;;50.33;17.07;;;;;;;;;;5031344;28;20095;-81
2023/02/16 05:22:23;;;;;;;55.85;16.88;;;;;;;;;;5032994;28;20033;-81
2023/02/16 05:24:49;;;;;;;55.73;17.57;;;;;;;;;;5034644;28;20017;-82
2023/02/16 05:27:26;;;;;;;57.93;20.40;;;;;;;;;;5031726;28;20561;-83
2023/02/16 05:29:52;;;;;;;50.33;18.57;;;;;;;;;;5032251;28;20026;-81
2023/02/16 05:32:18;;;;;;;51.03;18.17;;;;;;;;;;5032102;28;20033;-82
2023/02/16 05:35:08;;;;;;;48.40;18.83;;;;;;;;;;5052997;28;20017;-84
2023/02/16 05:37:34;;;;;;;51.17;17.83;;;;;;;;;;5050697;28;20030;-83
2023/02/16 05:39:59;;;;;;;58.87;19.23;;;;;;;;;;5053944;28;20469;-81
2023/02/16 05:42:25;;;;;;;53.63;19.00;;;;;;;;;;5058414;28;20080;-81
2023/02/16 05:44:50;;;;;;;57.50;18.03;;;;;;;;;;5053531;28;20036;-82
2023/02/16 05:47:16;;;;;;;53.73;18.30;;;;;;;;;;5054717;28;20099;-82
2023/02/16 05:49:41;;;;;;;52.33;17.57;;;;;;;;;;5055137;28;20040;-81
2023/02/16 05:52:07;;;;;;;47.97;16.03;;;;;;;;;;5053722;28;20387;-82
2023/02/16 05:54:33;;;;;;;57.03;20.67;;;;;;;;;;5068715;28;20121;-82
2023/02/16 05:56:59;;;;;;;45.20;16.23;;;;;;;;;;5054180;28;20393;-80
2023/02/16 05:59:24;;;;;;;49.63;17.00;;;;;;;;;;5052182;28;20114;-82
2023/02/16 06:01:50;;;;;;;52.50;20.13;;;;;;;;;;5053862;28;20032;-82
2023/02/16 06:04:15;;;;;;;43.73;16.43;;;;;;;;;;5053750;28;20021;-81
2023/02/16 06:06:41;;;;;;;44.43;17.20;;;;;;;;;;5052369;28;20024;-81
2023/02/16 06:09:08;;;;;;;45.60;18.00;;;;;;;;;;5051510;28;20017;-82
2023/02/16 06:11:34;;;;;;;46.63;16.40;;;;;;;;;;5052719;28;20032;-82
2023/02/16 06:14:01;;;;;;;41.20;16.30;;;;;;;;;;5051325;28;20035;-81
2023/02/16 06:16:32;;;;;;;44.53;16.53;;;;;;;;;;5051371;28;20033;-81
2023/02/16 06:18:59;;;;;;;44.70;16.13;;;;;;;;;;5050937;28;20021;-82
2023/02/16 06:21:25;;;;;;;49.63;17.93;;;;;;;;;;5051579;28;20024;-83
2023/02/16 06:23:51;;;;;;;39.00;18.33;;;;;;;;;;5052277;28;20037;-82
2023/02/16 06:26:17;;;;;;;47.23;18.00;;;;;;;;;;5052500;28;20109;-83
2023/02/16 06:28:43;;;;;;;46.57;18.17;;;;;;;;;;5036760;28;20473;-81
2023/02/16 06:31:09;;;;;;;42.73;16.00;;;;;;;;;;5031650;28;20101;-83
2023/02/16 06:36:40;;;;;;;46.40;16.33;;;;;;;;;;5031350;28;20103;-79
2023/02/16 06:39:06;;;;;;;44.97;15.87;;;;;;;;;;5031949;28;20101;-79
2023/02/16 06:41:36;;;;;;;41.53;16.23;;;;;;;;;;5029549;28;20085;-79
2023/02/16 06:44:05;;;;;;;48.23;16.70;;;;;;;;;;5027828;28;20041;-79
2023/02/16 06:46:30;;;;;;;44.03;16.93;;;;;;;;;;5011845;28;20040;-79
2023/02/16 06:48:56;;;;;;;47.13;17.70;;;;;;;;;;5045025;28;20029;-78
2023/02/16 06:51:21;;;;;;;45.63;15.97;;;;;;;;;;5031597;28;20041;-81
2023/02/16 06:53:48;;;;;;;54.33;16.67;;;;;;;;;;5022596;28;20038;-80
2023/02/16 06:56:13;;;;;;;45.33;17.33;;;;;;;;;;5025263;28;20494;-81
2023/02/16 06:58:39;;;;;;;48.03;17.47;;;;;;;;;;5030625;28;20101;-79
2023/02/16 07:01:04;;;;;;;43.60;16.67;;;;;;;;;;5029000;28;20036;-79
2023/02/16 07:03:30;;;;;;;54.27;18.63;;;;;;;;;;5015278;28;20092;-79
2023/02/16 07:05:55;;;;;;;48.20;16.63;;;;;;;;;;5030004;28;20059;-79
2023/02/16 07:08:21;;;;;;;42.83;16.03;;;;;;;;;;5018468;28;20092;-79
2023/02/16 07:10:47;;;;;;;38.37;15.00;;;;;;;;;;5023282;28;20053;-80
2023/02/16 07:13:12;;;;;;;38.83;16.50;;;;;;;;;;5028876;28;20057;-80
2023/02/16 07:15:38;;;;;;;39.30;15.40;;;;;;;;;;5029793;28;20124;-80
2023/02/16 07:18:04;;;;;;;41.70;17.03;;;;;;;;;;5028537;28;20033;-80
2023/02/16 07:20:30;;;;;;;46.57;16.93;;;;;;;;;;5032241;28;20033;-81
2023/02/16 07:22:56;;;;;;;33.67;15.40;;;;;;;;;;5014866;28;20095;-83
2023/02/16 07:25:24;;;;;;;42.33;16.23;;;;;;;;;;5030875;28;20452;-81
2023/02/16 07:27:49;;;;;;;40.03;15.77;;;;;;;;;;5037565;28;20093;-81
2023/02/16 07:30:16;;;;;;;44.83;17.00;;;;;;;;;;5041900;28;20048;-80
2023/02/16 07:32:42;;;;;;;48.33;17.37;;;;;;;;;;5041337;28;20033;-82
2023/02/16 07:35:10;;;;;;;46.10;17.07;;;;;;;;;;5038900;28;20048;-80
2023/02/16 07:37:36;;;;;;;41.80;16.43;;;;;;;;;;5048913;28;20029;-80
2023/02/16 07:40:01;;;;;;;45.93;15.93;;;;;;;;;;5045535;28;20017;-80
2023/02/16 07:42:31;;;;;;;44.13;15.83;;;;;;;;;;5053918;28;20032;-80
2023/02/16 07:44:57;;;;;;;41.57;17.17;;;;;;;;;;5051018;28;20037;-82
2023/02/16 07:47:23;;;;;;;43.33;17.77;;;;;;;;;;5043948;28;20503;-82
2023/02/16 07:49:48;;;;;;;42.80;16.20;;;;;;;;;;5045627;28;20093;-81
2023/02/16 07:52:14;;;;;;;42.97;15.93;;;;;;;;;;5035618;28;20099;-80
2023/02/16 07:54:39;;;;;;;43.53;16.23;;;;;;;;;;5045030;28;20429;-82
2023/02/16 07:57:05;;;;;;;41.90;18.27;;;;;;;;;;5034994;28;20021;-82
2023/02/16 07:59:31;;;;;;;41.77;17.87;;;;;;;;;;5043073;28;20016;-80
2023/02/16 08:01:57;;;;;;;60.20;25.30;;;;;;;;;;5047761;28;20475;-81
2023/02/16 08:04:22;;;;;;;47.23;18.47;;;;;;;;;;5032876;28;20025;-81
2023/02/16 08:06:48;;;;;;;45.23;17.83;;;;;;;;;;5038597;28;20512;-80
2023/02/16 08:09:17;;;;;;;55.37;18.40;;;;;;;;;;5043217;28;20018;-80
2023/02/16 08:11:43;;;;;;;49.33;18.33;;;;;;;;;;5040820;28;20017;-79
2023/02/16 08:14:09;;;;;;;47.03;18.93;;;;;;;;;;5038484;28;20054;-78
2023/02/16 08:16:35;;;;;;;51.17;19.10;;;;;;;;;;5016168;28;20095;-76
2023/02/16 08:19:02;;;;;;;37.47;17.27;;;;;;;;;;5043887;28;20057;-78
2023/02/16 08:21:32;;;;;;;43.50;17.13;;;;;;;;;;5043440;28;20543;-78
2023/02/16 08:24:04;;;;;;;40.90;16.80;;;;;;;;;;5053334;28;20022;-78
2023/02/16 08:26:40;;;;;;;54.75;21.13;;;;;;;;;;5039312;28;20037;-77
2023/02/16 08:29:08;;;;;;;46.23;19.47;;;;;;;;;;5037652;28;20037;-79
2023/02/16 08:31:36;;;;;;;41.50;17.20;;;;;;;;;;5045199;28;20018;-78
2023/02/16 08:34:03;;;;;;;61.00;20.60;;;;;;;;;;5061713;28;20055;-78
2023/02/16 08:36:37;;;;;;;43.20;18.93;;;;;;;;;;5047852;28;20048;-77
2023/02/16 08:39:06;;;;;;;49.83;18.97;;;;;;;;;;5046806;28;20018;-78
2023/02/16 08:41:35;;;;;;;57.87;20.03;;;;;;;;;;5043804;28;20120;-79
2023/02/16 08:44:01;;;;;;;46.83;18.80;;;;;;;;;;5034741;28;20416;-76
2023/02/16 08:46:29;;;;;;;53.30;18.47;;;;;;;;;;5048959;28;20036;-81
2023/02/16 08:48:58;;;;;;;54.87;19.73;;;;;;;;;;5042064;28;20103;-79
2023/02/16 08:51:24;;;;;;;50.30;17.03;;;;;;;;;;5047608;28;20032;-80
2023/02/16 08:53:51;;;;;;;53.50;18.03;;;;;;;;;;5041946;28;20040;-78
2023/02/16 08:56:18;;;;;;;46.10;17.83;;;;;;;;;;5037556;28;20560;-79
2023/02/16 08:58:45;;;;;;;42.93;17.30;;;;;;;;;;5044621;28;20499;-78
2023/02/16 09:01:13;;;;;;;47.83;18.23;;;;;;;;;;5040808;28;20024;-80
2023/02/16 09:03:44;;;;;;;46.33;18.90;;;;;;;;;;5028283;28;20040;-80
2023/02/16 09:06:14;;;;;;;49.93;17.60;;;;;;;;;;5036930;28;20036;-79
2023/02/16 09:08:40;;;;;;;41.20;17.50;;;;;;;;;;5024715;28;20400;-80
2023/02/16 09:11:15;;;;;;;43.03;18.23;;;;;;;;;;5043477;28;20028;-79
2023/02/16 09:13:42;;;;;;;48.50;17.43;;;;;;;;;;5041062;28;20037;-78
2023/02/16 09:16:14;;;;;;;51.40;20.43;;;;;;;;;;5030417;28;20059;-78
2023/02/16 09:18:40;;;;;;;45.57;17.43;;;;;;;;;;5042907;28;20040;-80
2023/02/16 09:21:09;;;;;;;49.13;19.00;;;;;;;;;;5039025;28;20040;-77
2023/02/16 09:23:36;;;;;;;45.90;20.50;;;;;;;;;;5042474;28;20022;-78
2023/02/16 09:26:06;;;;;;;64.87;25.10;;;;;;;;;;5038573;28;20424;-77
2023/02/16 09:28:36;;;;;;;45.50;19.87;;;;;;;;;;5042210;28;20121;-78
2023/02/16 09:31:26;;;;;;;49.17;17.20;;;;;;;;;;5042292;28;20025;-77
2023/02/16 09:34:00;;;;;;;49.30;17.73;;;;;;;;;;5057220;28;20115;-78
2023/02/16 09:36:26;;;;;;;50.33;17.00;;;;;;;;;;5042492;28;20077;-78
2023/02/16 09:38:53;;;;;;;41.90;16.80;;;;;;;;;;5046913;28;20369;-79
2023/02/16 09:41:30;;;;;;;42.93;16.60;;;;;;;;;;5039404;28;20031;-77
2023/02/16 09:44:10;;;;;;;42.33;17.13;;;;;;;;;;5056045;28;20668;-79
2023/02/16 09:46:36;;;;;;;36.40;16.43;;;;;;;;;;5037755;28;20029;-77
2023/02/16 09:49:03;;;;;;;40.70;18.67;;;;;;;;;;5024860;28;20405;-78
2023/02/16 09:51:36;;;;;;;48.23;18.67;;;;;;;;;;5031558;28;20419;-79
2023/02/16 09:54:44;;;;;;;37.50;17.13;;;;;;;;;;5040279;28;20029;-78
2023/02/16 09:57:47;;;;;;;35.43;15.50;;;;;;;;;;5044250;28;20323;-80
2023/02/16 10:00:34;;;;;;;43.07;16.60;;;;;;;;;;5043776;28;20469;-78
2023/02/16 10:03:36;;;;;;;37.60;17.80;;;;;;;;;;5042787;28;20116;-80
2023/02/16 10:06:22;;;;;;;41.43;16.13;;;;;;;;;;5043698;28;20033;-81
2023/02/16 10:08:56;;;;;;;41.50;17.40;;;;;;;;;;5036229;28;20029;-78
2023/02/16 10:11:37;;;;;;;43.77;18.53;;;;;;;;;;5041862;28;20047;-79
2023/02/16 10:14:20;;;;;;;41.35;17.27;;;;;;;;;;5041521;28;20171;-81
2023/02/16 10:16:56;;;;;;;43.57;18.17;;;;;;;;;;5035738;28;20128;-81
2023/02/16 10:19:37;;;;;;;43.07;17.27;;;;;;;;;;5030825;28;20901;-80
2023/02/16 10:22:07;;;;;;;44.80;17.07;;;;;;;;;;5042437;28;20071;-80
2023/02/16 10:24:43;;;;;;;39.73;18.00;;;;;;;;;;5036207;28;20033;-78
2023/02/16 10:27:19;;;;;;;48.90;17.87;;;;;;;;;;5044519;28;20124;-79
2023/02/16 10:29:45;;;;;;;43.27;17.17;;;;;;;;;;5044079;28;20027;-79
2023/02/16 10:32:23;;;;;;;43.87;17.67;;;;;;;;;;5047645;28;20435;-80
2023/02/16 10:34:57;;;;;;;46.13;16.93;;;;;;;;;;5050774;28;20461;-80
2023/02/16 10:37:49;;;;;;;40.87;17.33;;;;;;;;;;5031396;28;20495;-83
2023/02/16 10:40:17;;;;;;;46.50;17.90;;;;;;;;;;5049328;28;20103;-81
2023/02/16 10:43:08;;;;;;;45.20;20.17;;;;;;;;;;5044680;28;20140;-81
2023/02/16 10:45:52;;;;;;;39.13;18.20;;;;;;;;;;5032516;28;20025;-83
2023/02/16 10:48:21;;;;;;;41.47;17.83;;;;;;;;;;5045902;28;20033;-79
2023/02/16 10:51:08;;;;;;;49.43;17.03;;;;;;;;;;5054695;28;20074;-79
2023/02/16 10:53:45;;;;;;;63.20;20.17;;;;;;;;;;5040073;28;20106;-78
2023/02/16 10:56:42;;;;;;;43.90;18.57;;;;;;;;;;5043842;28;20060;-79
2023/02/16 10:59:19;;;;;;;37.33;17.13;;;;;;;;;;5045297;28;20123;-79
2023/02/16 11:01:48;;;;;;;50.17;18.77;;;;;;;;;;5042275;28;20031;-82
2023/02/16 11:04:30;;;;;;;39.73;18.93;;;;;;;;;;5047426;28;20039;-79
2023/02/16 11:07:04;;;;;;;;;;;;;;;;;;5045381;28;20139;-80
2023/02/16 11:09:32;;;;;;;38.67;16.10;;;;;;;;;;5037532;28;19920;-80
2023/02/16 11:11:58;;;;;;;47.00;18.20;;;;;;;;;;5039605;28;20615;-80
2023/02/16 11:14:29;;;;;;;41.90;17.57;;;;;;;;;;5042960;28;20064;-80
2023/02/16 11:17:13;;;;;;;38.40;16.30;;;;;;;;;;5057220;28;20548;-80
2023/02/16 11:19:47;;;;;;;39.80;16.60;;;;;;;;;;5043001;28;20374;-80
2023/02/16 11:22:37;;;;;;;45.43;19.50;;;;;;;;;;5050715;28;20021;-79
2023/02/16 11:25:20;;;;;;;38.80;16.83;;;;;;;;;;5041720;28;20063;-80
2023/02/16 11:28:05;;;;;;;44.70;17.20;;;;;;;;;;5044050;28;20032;-80
2023/02/16 11:30:41;;;;;;;44.23;18.63;;;;;;;;;;5043168;28;20464;-80
2023/02/16 11:33:30;;;;;;;47.83;18.77;;;;;;;;;;5038469;28;20025;-80
2023/02/16 11:35:56;;;;;;;37.93;16.63;;;;;;;;;;5043816;28;20183;-82
2023/02/16 11:38:29;;;;;;;41.33;18.23;;;;;;;;;;5045247;28;20479;-82
2023/02/16 11:40:57;;;;;;;44.57;19.83;;;;;;;;;;5047011;28;20024;-81
2023/02/16 11:43:27;;;;;;;46.10;17.70;;;;;;;;;;5038301;28;20104;-80
2023/02/16 11:46:16;;;;;;;48.23;17.97;;;;;;;;;;5044090;28;20045;-79
2023/02/16 11:48:42;;;;;;;36.43;16.40;;;;;;;;;;5039510;28;20029;-80
2023/02/16 11:51:09;;;;;;;42.07;17.83;;;;;;;;;;5049519;28;20166;-81
2023/02/16 11:53:41;;;;;;;48.43;17.47;;;;;;;;;;5061214;28;20317;-79
2023/02/16 11:56:26;;;;;;;41.95;16.58;;;;;;;;;;5052094;28;20101;-78
2023/02/16 11:59:18;;;;;;;38.57;16.67;;;;;;;;;;5045910;28;20465;-78
2023/02/16 12:01:46;;;;;;;39.42;16.80;;;;;;;;;;5062295;28;20047;-81
2023/02/16 12:04:28;;;;;;;36.70;16.23;;;;;;;;;;5043442;28;20033;-78
2023/02/16 12:07:21;;;;;;;47.35;16.95;;;;;;;;;;5039365;28;20370;-78
2023/02/16 12:09:53;;;;;;;39.50;17.80;;;;;;;;;;5066898;28;20029;-79
2023/02/16 12:12:38;;;;;;;45.72;17.70;;;;;;;;;;5048123;28;20056;-80
2023/02/16 12:15:31;;;;;;;36.05;16.10;;;;;;;;;;5038391;28;20032;-78
2023/02/16 12:18:07;;;;;;;35.45;15.27;;;;;;;;;;5045887;28;20036;-80
2023/02/16 12:20:52;;;;;;;47.03;16.67;;;;;;;;;;5050724;28;20021;-80
2023/02/16 12:23:38;;;;;;;43.75;16.40;;;;;;;;;;5041340;28;20439;-79
2023/02/16 12:26:24;;;;;;;38.88;15.40;;;;;;;;;;5043406;28;20055;-78
2023/02/16 12:29:23;;;;;;;58.83;17.70;;;;;;;;;;5047537;28;20036;-79
2023/02/16 12:32:03;;;;;;;39.85;17.10;;;;;;;;;;5050190;28;20035;-79
2023/02/16 12:34:57;;;;;;;39.17;17.75;;;;;;;;;;5052600;28;20033;-80
2023/02/16 12:37:40;;;;;;;34.30;16.02;;;;;;;;;;5049197;28;20454;-79
2023/02/16 12:40:15;;;;;;;53.25;17.75;;;;;;;;;;5050912;28;20460;-79
2023/02/16 12:42:47;;;;;;;44.72;17.83;;;;;;;;;;5047291;28;20814;-78
2023/02/16 12:45:18;;;;;;;39.85;16.65;;;;;;;;;;5049153;28;20048;-77
2023/02/16 12:47:54;;;;;;;39.85;17.13;;;;;;;;;;5042672;28;20040;-80
2023/02/16 12:50:24;;;;;;;44.40;19.80;;;;;;;;;;5050454;28;20107;-79
2023/02/16 12:53:17;;;;;;;38.33;15.80;;;;;;;;;;5045485;28;20036;-79
2023/02/16 12:56:13;;;;;;;40.30;16.73;;;;;;;;;;5048673;28;20086;-77
2023/02/16 12:58:43;;;;;;;30.95;15.38;;;;;;;;;;5065539;28;20033;-79
2023/02/16 13:01:27;;;;;;;33.33;14.57;;;;;;;;;;5051128;28;20085;-77
2023/02/16 13:04:01;;;;;;;30.23;16.23;;;;;;;;;;5045405;28;20349;-79
2023/02/16 13:06:47;;;;;;;37.50;16.95;;;;;;;;;;5048046;28;20033;-79
2023/02/16 13:09:39;;;;;;;30.83;14.95;;;;;;;;;;5043285;28;20503;-79
2023/02/16 13:12:32;;;;;;;29.35;13.27;;;;;;;;;;5033502;28;20122;-80
2023/02/16 13:15:05;;;;;;;40.70;14.50;;;;;;;;;;5043552;28;20388;-79
2023/02/16 13:17:35;;;;;;;33.35;15.85;;;;;;;;;;5045816;28;20073;-79
2023/02/16 13:20:02;;;;;;;30.60;14.73;;;;;;;;;;5057318;28;20044;-78
2023/02/16 13:22:38;;;;;;;39.17;16.50;;;;;;;;;;5060356;28;20037;-81
2023/02/16 13:25:22;;;;;;;37.47;15.20;;;;;;;;;;5062178;28;20098;-77
2023/02/16 13:28:02;;;;;;;35.75;15.95;;;;;;;;;;5041573;28;20120;-80
2023/02/16 13:30:56;;;;;;;32.22;14.98;;;;;;;;;;5039193;28;20528;-79
2023/02/16 13:33:47;;;;;;;39.67;15.70;;;;;;;;;;5060397;28;20151;-77
2023/02/16 13:36:42;;;;;;;54.88;17.25;;;;;;;;;;5041064;28;20072;-78
2023/02/16 13:39:11;;;;;;;33.00;13.20;;;;;;;;;;5027108;28;20033;-79
2023/02/16 13:42:34;;;;;;;44.95;18.90;;;;;;;;;;5042785;28;20079;-80
2023/02/16 13:45:02;;;;;;;41.50;18.17;;;;;;;;;;5046751;28;20021;-78
2023/02/16 13:47:36;;;;;;;34.85;15.57;;;;;;;;;;5043634;28;20591;-81
2023/02/16 13:50:07;;;;;;;46.45;16.55;;;;;;;;;;5036956;28;20033;-79
2023/02/16 13:52:40;;;;;;;36.42;15.13;;;;;;;;;;5045923;28;20120;-80
2023/02/16 13:55:37;;;;;;;41.30;17.17;;;;;;;;;;5044105;28;20065;-78
2023/02/16 13:58:11;;;;;;;43.72;18.92;;;;;;;;;;5041095;28;20035;-80
2023/02/16 14:00:41;;;;;;;47.05;20.52;;;;;;;;;;5045476;28;20113;-79
2023/02/16 14:03:17;;;;;;;61.53;21.30;;;;;;;;;;5045061;28;20029;-81
2023/02/16 14:05:48;;;;;;;54.63;20.95;;;;;;;;;;5047199;28;20078;-79
2023/02/16 14:08:20;;;;;;;38.50;17.70;;;;;;;;;;5039809;28;20076;-80
2023/02/16 14:10:54;;;;;;;35.95;15.32;;;;;;;;;;5042206;28;20048;-79
2023/02/16 14:13:26;;;;;;;38.67;18.17;;;;;;;;;;5045163;28;20120;-79
2023/02/16 14:15:55;;;;;;;61.30;23.67;;;;;;;;;;5046880;28;20079;-77
2023/02/16 14:19:05;;;;;;;50.92;20.90;;;;;;;;;;5039826;28;20028;-80
2023/02/16 14:21:37;;;;;;;43.25;20.02;;;;;;;;;;5018174;28;20063;-81
2023/02/16 14:24:08;;;;;;;43.97;20.83;;;;;;;;;;5039622;28;20036;-78
2023/02/16 14:27:00;;;;;;;46.67;22.40;;;;;;;;;;5024020;28;20029;-79
2023/02/16 14:29:35;;;;;;;51.25;21.77;;;;;;;;;;5054692;28;20040;-79
2023/02/16 14:32:20;;;;;;;43.65;22.02;;;;;;;;;;5042176;28;20650;-80
2023/02/16 14:34:54;;;;;;;52.50;22.15;;;;;;;;;;5045931;28;20064;-83
2023/02/16 14:37:28;;;;;;;58.55;25.25;;;;;;;;;;5041304;28;20068;-80
2023/02/16 14:40:02;;;;;;;50.58;21.40;;;;;;;;;;5049742;28;20017;-80
2023/02/16 14:42:35;;;;;;;65.68;22.92;;;;;;;;;;5039202;28;20104;-80
2023/02/16 14:45:19;;;;;;;50.70;21.92;;;;;;;;;;5049058;28;20037;-81
2023/02/16 14:48:23;;;;;;;50.10;21.65;;;;;;;;;;5048304;28;20036;-80
2023/02/16 14:51:13;;;;;;;53.92;21.63;;;;;;;;;;5041962;28;20075;-80
2023/02/16 14:54:16;;;;;;;49.05;21.38;;;;;;;;;;5048097;28;20032;-80
2023/02/16 14:56:46;;;;;;;45.78;20.20;;;;;;;;;;5063898;28;20491;-82
2023/02/16 14:59:43;;;;;;;43.28;21.27;;;;;;;;;;5047274;28;20071;-79
2023/02/16 15:02:29;;;;;;;54.33;22.02;;;;;;;;;;5029437;28;20037;-81
2023/02/16 15:04:55;;;;;;;49.47;21.20;;;;;;;;;;5038849;28;20390;-81
2023/02/16 15:07:22;;;;;;;57.33;23.50;;;;;;;;;;5065204;28;20033;-80
2023/02/16 15:09:56;;;;;;;60.25;24.10;;;;;;;;;;5048058;28;20035;-77
2023/02/16 15:12:36;;;;;;;62.00;24.20;;;;;;;;;;5049751;28;20078;-79
2023/02/16 15:15:09;;;;;;;92.32;28.17;;;;;;;;;;5048109;28;20203;-79
2023/02/16 15:17:44;;;;;;;57.42;22.52;;;;;;;;;;5046750;28;20465;-79
2023/02/16 15:20:18;;;;;;;55.20;21.63;;;;;;;;;;5044103;28;20021;-81
2023/02/16 15:22:49;;;;;;;63.25;23.50;;;;;;;;;;5051049;28;20025;-78
2023/02/16 15:25:25;;;;;;;52.50;22.98;;;;;;;;;;5045023;28;20200;-79
2023/02/16 15:28:14;;;;;;;57.33;22.13;;;;;;;;;;5048227;28;20086;-79
2023/02/16 15:30:49;;;;;;;61.28;23.27;;;;;;;;;;5030417;28;20363;-78
2023/02/16 15:33:25;;;;;;;48.37;21.40;;;;;;;;;;5041247;28;20063;-78
2023/02/16 15:35:55;;;;;;;57.70;23.45;;;;;;;;;;5042474;28;20053;-78